• Join FlightAware (Why Join?)
  • Login
  • US Flag 
03:11PM EST


 

Airport Tracker/Info


-or-


 

Live Flight TrackerFlight Track Log ✈ TAM3441 ✈ 18-Nov-2013 ✈ SBCF / CNF - SBGR / GRU

Flight Track Log - Related Links

Times and Time Zones

All times are in EST time to prevent confusion due to time zone crossing. See the TAM3441 flight status page for this flight to view local times or setup timezone preferences in your user account.

Time Position Orientation Groundspeed Altitude Reporting Facility
EST Latitude Longitude Course Direction KTS MPH feet Rate Location/Type
03:24AM -21.0427 -44.8785 211° Southwest  Level Estimated
03:25AM -21.0948 -44.9125 211° Southwest  Level Estimated
03:26AM -21.1469 -44.9466 211° Southwest  Level Estimated
03:27AM -21.1989 -44.9806 211° Southwest  Level Estimated
03:28AM -21.2510 -45.0147 211° Southwest  Level Estimated
03:29AM -21.3031 -45.0488 211° Southwest  Level Estimated
03:30AM -21.3551 -45.0830 211° Southwest  Level Estimated
03:31AM -21.4072 -45.1171 211° Southwest  Level Estimated
03:32AM -21.4592 -45.1513 211° Southwest  Level Estimated
03:33AM -21.5113 -45.1855 211° Southwest  Level Estimated
03:34AM -21.5633 -45.2197 211° Southwest  Level Estimated
03:35AM -21.6153 -45.2540 211° Southwest  Level Estimated
03:36AM -21.6673 -45.2883 211° Southwest  Level Estimated
03:37AM -21.7193 -45.3226 211° Southwest  Level Estimated
03:38AM -21.7713 -45.3569 212° Southwest  Level Estimated
03:39AM -21.8233 -45.3913 212° Southwest  Level Estimated
03:40AM -21.8753 -45.4257 212° Southwest  Level Estimated
03:41AM -21.9273 -45.4601 212° Southwest  Level Estimated
03:42AM -21.9793 -45.4945 212° Southwest  Level Estimated
03:43AM -22.0312 -45.5289 212° Southwest  Level Estimated
03:44AM -22.0832 -45.5634 212° Southwest  Level Estimated
03:45AM -22.1351 -45.5979 212° Southwest  Level Estimated
03:46AM -22.1871 -45.6325 212° Southwest  Level Estimated
03:47AM -22.2390 -45.6670 212° Southwest  Level Estimated
03:48AM -22.2910 -45.7016 212° Southwest  Level Estimated
03:49AM -22.3429 -45.7362 212° Southwest  Level Estimated
03:50AM -22.3948 -45.7709 212° Southwest  Level Estimated
03:51AM -22.4467 -45.8055 212° Southwest  Level Estimated
03:52AM -22.4986 -45.8402 212° Southwest  Level Estimated
03:53AM -22.5505 -45.8749 212° Southwest  Level Estimated
03:54AM -22.6024 -45.9097 212° Southwest  Level Estimated
03:55AM -22.6542 -45.9444 212° Southwest  Level Estimated
03:56AM -22.7061 -45.9792 212° Southwest  Level Estimated
03:57AM -22.7580 -46.0140 212° Southwest  Level Estimated
03:58AM -22.8098 -46.0489 212° Southwest  Level Estimated
03:59AM -22.8617 -46.0838 212° Southwest  Level Estimated
04:00AM -22.9135 -46.1186 212° Southwest  Level Estimated
04:01AM -22.9653 -46.1536 212° Southwest  Level Estimated
04:02AM -23.0172 -46.1885 212° Southwest  Level Estimated
04:03AM -23.0690 -46.2235 212° Southwest  Level Estimated
04:04AM -23.1208 -46.2585 212° Southwest  Level Estimated
04:05AM -23.1726 -46.2935 212° Southwest  Level Estimated
04:06AM -23.2244 -46.3286 212° Southwest  Level Estimated
04:07AM -23.2762 -46.3637 212° Southwest  Level Estimated
04:08AM -23.3279 -46.3988 212° Southwest  Level Estimated
04:09AM -23.3797 -46.4339 212° Southwest  Level Estimated
04:10AM -23.4315 -46.4691 212° Southwest  Level Estimated
04:11AM -23.4321 -46.4695 212° Southwest  Level Estimated
04:12AM -23.4321 -46.4695 350° North  Level Estimated
04:13AM -23.4321 -46.4695 350° North  Level Estimated
04:14AM -23.4321 -46.4695 350° North  Level Estimated
04:15AM -23.4321 -46.4695 350° North  Level Estimated
04:16AM -23.4321 -46.4695 350° North  Level Estimated
04:17AM -23.4321 -46.4695 350° North  Level Estimated
04:18AM -23.4321 -46.4695 350° North  Level Estimated
04:19AM -23.4321 -46.4695 350° North  Level Estimated
04:20AM -23.4321 -46.4695 350° North  Level Estimated